Menifee, AR (72107)

2:57 AM CST on February 07, 2016 (GMT -0600)
APRSWXNET | | Change Station
CLOSE
Current Station
Personal Weather Station
Location: Menifee, AR
Elevation: 370 ft
Nearby Weather Stations

Elev 370 ft 35.16 °N, 92.58 °W | Updated 19 minutes ago

Clear
Clear
25 °F
Feels Like 25 °F
N
0
Wind Variable Wind from West
Gusts 0.0 mph

Today
High -- | Low -- °F
--% Chance of Precip.
Yesterday
High -- | Low -- °F
Precip. -- in
Pressure 30.27 in
Visibility 10.0 miles
Clouds Clear
Windchill 25 °F
Dew Point 23 °F
Humidity 93%
Rainfall in
Snow Depth Not available.
7:04 AM 5:44 PM
Waning Crescent, 2% visible
METAR KLRF 070758Z AUTO 00000KT 10SM CLR M03/M05 A3025 RMK AO2 SLP248 T10281052
Pressure 30.27 in
Visibility 10.0 miles
Clouds Clear
Windchill 25 °F
Dew Point 23 °F
Humidity 93%
Rainfall in
Snow Depth Not available.
7:04 AM 5:44 PM
Waning Crescent, 2% visible
METAR KLRF 070758Z AUTO 00000KT 10SM CLR M03/M05 A3025 RMK AO2 SLP248 T10281052

10-Day Weather Forecast

Almanac

Astronomy

Feb. 07, 2016 Rise Set
Actual Time
Civil Twilight
Nautical Twilight
Astronomical Twilight
Moon
Length of Visible Light
Length of Day
Tomorrow will be .
, % of the Moon is Illuminated

Today's Extremes

State Highs State Lows

Community

WunderPhotos

Upload Photos

1,891,171 photos uploaded!

WunderBlog® & News

Nearby

Air Quality

  Air Quality AQ Index Pollutant
Not available.

Snow Depth

Station Depth Elevation

Earthquake Activity

City Distance Mag. Time & Date
Minimum magnitude displayed is 2.5.

Coastal Water Temperatures

Place Temperature

Stations

Nearby Weather Stations

Station Location Temp. Windchill Dew Point Humidity Wind Precip. Elev Updated Type
                   

Watches & Warnings

There are currently no watches in effect.